Time;durP1;ratioP1;P1;durP2;ratioP2;P2;SDS_P1;SDS_P2;PMS_P1;PMS_P2;Temp;Humidity;BMP_temperature;BMP_pressure;BME280_temperature;BME280_humidity;BME280_pressure;Samples;Min_cycle;Max_cycle;Signal;HPM_P1;HPM_P2
2023/08/01 00:00:36;;;;;;;4.60;3.05;;;;;;;;;;2041918;28;20067;-80
2023/08/01 00:01:54;;;;;;;6.45;3.35;;;;;;;;;;2043749;28;20439;-79
2023/08/01 00:03:13;;;;;;;7.28;3.30;;;;;;;;;;2039155;28;20459;-79
2023/08/01 00:04:32;;;;;;;5.22;2.65;;;;;;;;;;2039906;28;20028;-80
2023/08/01 00:05:51;;;;;;;8.15;3.25;;;;;;;;;;2039939;28;20106;-78
2023/08/01 00:07:10;;;;;;;6.05;2.95;;;;;;;;;;2042661;28;20028;-77
2023/08/01 00:08:29;;;;;;;4.95;2.72;;;;;;;;;;2040413;29;20504;-79
2023/08/01 00:09:48;;;;;;;6.20;2.92;;;;;;;;;;2038965;28;20486;-77
2023/08/01 00:11:09;;;;;;;4.07;2.78;;;;;;;;;;2040108;28;20340;-81
2023/08/01 00:12:28;;;;;;;4.28;2.95;;;;;;;;;;2044327;28;20555;-79
2023/08/01 00:13:47;;;;;;;7.93;4.40;;;;;;;;;;2044140;28;20600;-79
2023/08/01 00:15:06;;;;;;;8.23;4.80;;;;;;;;;;2039928;28;20514;-79
2023/08/01 00:16:25;;;;;;;8.80;3.75;;;;;;;;;;2044608;29;20027;-79
2023/08/01 00:17:44;;;;;;;8.85;4.85;;;;;;;;;;2041596;28;20478;-79
2023/08/01 00:19:03;;;;;;;9.60;4.28;;;;;;;;;;2039448;28;20063;-78
2023/08/01 00:20:22;;;;;;;8.30;5.32;;;;;;;;;;2040515;29;20040;-79
2023/08/01 00:21:41;;;;;;;9.90;6.57;;;;;;;;;;2039439;28;20035;-79
2023/08/01 00:23:00;;;;;;;5.65;4.53;;;;;;;;;;2034293;28;20023;-78
2023/08/01 00:24:19;;;;;;;8.18;4.50;;;;;;;;;;2039895;28;20067;-79
2023/08/01 00:25:38;;;;;;;4.55;3.50;;;;;;;;;;2039322;28;20027;-79
2023/08/01 00:26:58;;;;;;;5.90;3.25;;;;;;;;;;2040145;28;20450;-79
2023/08/01 00:28:19;;;;;;;6.15;3.08;;;;;;;;;;2044560;28;20801;-80
2023/08/01 00:29:38;;;;;;;8.70;3.78;;;;;;;;;;2041565;28;20485;-79
2023/08/01 00:31:04;;;;;;;6.25;3.60;;;;;;;;;;2039867;28;20040;-79
2023/08/01 00:32:23;;;;;;;6.45;3.45;;;;;;;;;;2042930;28;20039;-79
2023/08/01 00:33:42;;;;;;;8.30;3.28;;;;;;;;;;2043547;28;20043;-80
2023/08/01 00:35:01;;;;;;;7.57;3.60;;;;;;;;;;2047310;28;20031;-80
2023/08/01 00:36:20;;;;;;;8.85;3.63;;;;;;;;;;2048301;28;20031;-78
2023/08/01 00:37:39;;;;;;;8.77;3.67;;;;;;;;;;2039911;28;20035;-79
2023/08/01 00:38:58;;;;;;;5.60;3.15;;;;;;;;;;2038767;28;20028;-78
2023/08/01 00:40:17;;;;;;;6.07;3.10;;;;;;;;;;2044115;28;20027;-78
2023/08/01 00:41:36;;;;;;;5.35;2.65;;;;;;;;;;2050911;28;20031;-78
2023/08/01 00:42:56;;;;;;;6.32;3.30;;;;;;;;;;2047048;28;20039;-80
2023/08/01 00:44:15;;;;;;;3.92;3.08;;;;;;;;;;2051710;28;20062;-79
2023/08/01 00:45:34;;;;;;;3.35;2.58;;;;;;;;;;2047765;28;20031;-79
2023/08/01 00:46:53;;;;;;;4.60;2.83;;;;;;;;;;2040093;28;20106;-79
2023/08/01 00:48:12;;;;;;;8.63;3.40;;;;;;;;;;2041280;28;20118;-79
2023/08/01 00:49:31;;;;;;;5.68;3.20;;;;;;;;;;2045220;28;20023;-79
2023/08/01 00:50:51;;;;;;;3.58;2.42;;;;;;;;;;2045722;28;20056;-79
2023/08/01 00:52:10;;;;;;;4.40;2.20;;;;;;;;;;2048242;28;20524;-81
2023/08/01 00:53:29;;;;;;;4.25;2.88;;;;;;;;;;2049032;28;20035;-79
2023/08/01 00:54:48;;;;;;;5.47;2.80;;;;;;;;;;2040009;28;20591;-80
2023/08/01 00:56:07;;;;;;;5.40;2.80;;;;;;;;;;2047496;28;20489;-79
2023/08/01 00:57:26;;;;;;;5.00;2.50;;;;;;;;;;2039899;28;20495;-79
2023/08/01 00:58:45;;;;;;;4.53;2.45;;;;;;;;;;2075738;28;20042;-81
2023/08/01 01:00:05;;;;;;;5.70;2.95;;;;;;;;;;2060008;28;20063;-79
2023/08/01 01:01:24;;;;;;;5.47;3.10;;;;;;;;;;2045749;28;20054;-79
2023/08/01 01:02:43;;;;;;;2.50;2.10;;;;;;;;;;2051279;28;20106;-82
2023/08/01 01:04:01;;;;;;;5.13;2.72;;;;;;;;;;2046563;28;20118;-79
2023/08/01 01:05:22;;;;;;;5.40;2.45;;;;;;;;;;2044323;28;20019;-79
2023/08/01 01:06:42;;;;;;;3.15;2.72;;;;;;;;;;2048320;28;20024;-79
2023/08/01 01:08:02;;;;;;;5.60;2.55;;;;;;;;;;2039971;28;20024;-80
2023/08/01 01:09:21;;;;;;;3.65;2.90;;;;;;;;;;2042328;28;20031;-79
2023/08/01 01:10:39;;;;;;;5.15;2.28;;;;;;;;;;2040754;28;20389;-79
2023/08/01 01:12:00;;;;;;;2.55;2.42;;;;;;;;;;2045333;28;20027;-79
2023/08/01 01:13:19;;;;;;;2.67;2.47;;;;;;;;;;2040100;28;20043;-80
2023/08/01 01:14:38;;;;;;;4.63;2.35;;;;;;;;;;2045302;28;20492;-80
2023/08/01 01:15:57;;;;;;;5.95;2.45;;;;;;;;;;2039756;28;20416;-79
2023/08/01 01:17:17;;;;;;;5.97;2.30;;;;;;;;;;2045895;28;20047;-79
2023/08/01 01:18:36;;;;;;;3.70;2.35;;;;;;;;;;2041868;28;20099;-79
2023/08/01 01:19:54;;;;;;;4.03;2.55;;;;;;;;;;2044703;28;20027;-79
2023/08/01 01:21:13;;;;;;;7.57;2.45;;;;;;;;;;2042480;28;20035;-79
2023/08/01 01:22:33;;;;;;;5.95;2.55;;;;;;;;;;2040375;28;20040;-80
2023/08/01 01:23:53;;;;;;;4.00;2.30;;;;;;;;;;2045189;29;20042;-79
2023/08/01 01:25:11;;;;;;;5.88;2.22;;;;;;;;;;2047193;28;20023;-80
2023/08/01 01:26:32;;;;;;;5.45;2.13;;;;;;;;;;2049504;28;20422;-80
2023/08/01 01:27:52;;;;;;;3.35;2.10;;;;;;;;;;2042125;28;20042;-81
2023/08/01 01:29:11;;;;;;;4.30;2.10;;;;;;;;;;2041230;28;20036;-80
2023/08/01 01:30:33;;;;;;;7.20;2.58;;;;;;;;;;2043055;28;20043;-80
2023/08/01 01:31:53;;;;;;;3.75;2.28;;;;;;;;;;2049115;28;20051;-80
2023/08/01 01:33:12;;;;;;;7.75;2.78;;;;;;;;;;2048924;28;20404;-80
2023/08/01 01:34:31;;;;;;;4.47;2.40;;;;;;;;;;2041749;28;20031;-81
2023/08/01 01:35:50;;;;;;;4.93;2.53;;;;;;;;;;2045954;28;20032;-80
2023/08/01 01:37:10;;;;;;;4.65;2.58;;;;;;;;;;2047148;28;20397;-79
2023/08/01 01:38:29;;;;;;;3.63;2.58;;;;;;;;;;2042160;28;20031;-79
2023/08/01 01:39:48;;;;;;;4.95;2.20;;;;;;;;;;2047549;28;20024;-80
2023/08/01 01:41:07;;;;;;;5.47;3.03;;;;;;;;;;2040318;28;20529;-79
2023/08/01 01:42:26;;;;;;;4.47;2.55;;;;;;;;;;2044728;28;20084;-79
2023/08/01 01:43:45;;;;;;;4.28;2.70;;;;;;;;;;2043063;28;20114;-79
2023/08/01 01:45:05;;;;;;;4.10;2.60;;;;;;;;;;2043575;28;20028;-79
2023/08/01 01:46:24;;;;;;;6.85;3.15;;;;;;;;;;2038856;28;20040;-79
2023/08/01 01:47:43;;;;;;;8.55;3.20;;;;;;;;;;2035638;28;20028;-80
2023/08/01 01:49:02;;;;;;;6.22;2.42;;;;;;;;;;2035117;28;20032;-79
2023/08/01 01:50:21;;;;;;;6.35;2.40;;;;;;;;;;2043721;28;20035;-80
2023/08/01 01:51:40;;;;;;;2.40;2.20;;;;;;;;;;2039894;28;20101;-81
2023/08/01 01:52:59;;;;;;;5.07;2.40;;;;;;;;;;2042984;28;20039;-79
2023/08/01 01:54:18;;;;;;;4.32;2.53;;;;;;;;;;2044217;28;20035;-79
2023/08/01 01:55:37;;;;;;;4.82;2.70;;;;;;;;;;2042284;28;20031;-79
2023/08/01 01:56:56;;;;;;;3.00;2.25;;;;;;;;;;2036406;28;20428;-80
2023/08/01 01:58:15;;;;;;;6.68;2.83;;;;;;;;;;2046041;28;20039;-78
2023/08/01 01:59:34;;;;;;;2.72;2.28;;;;;;;;;;2046083;28;20032;-81
2023/08/01 02:00:54;;;;;;;5.03;2.13;;;;;;;;;;2039653;28;20416;-81
2023/08/01 02:02:14;;;;;;;5.97;2.50;;;;;;;;;;2030437;28;20048;-80
2023/08/01 02:03:33;;;;;;;7.35;2.67;;;;;;;;;;2040621;28;20507;-81
2023/08/01 02:04:52;;;;;;;3.45;2.50;;;;;;;;;;2041557;28;21024;-79
2023/08/01 02:06:11;;;;;;;4.93;2.70;;;;;;;;;;2046119;28;20039;-79
2023/08/01 02:07:30;;;;;;;2.75;2.25;;;;;;;;;;2040075;28;20031;-78
2023/08/01 02:08:49;;;;;;;6.43;2.65;;;;;;;;;;2043696;29;20487;-80
2023/08/01 02:10:08;;;;;;;6.10;2.55;;;;;;;;;;2048552;28;20031;-80
2023/08/01 02:11:27;;;;;;;6.45;2.50;;;;;;;;;;2046064;28;20031;-79
2023/08/01 02:12:46;;;;;;;6.05;2.20;;;;;;;;;;2046861;28;20027;-81
2023/08/01 02:14:05;;;;;;;6.82;2.47;;;;;;;;;;2045164;28;20024;-80
2023/08/01 02:15:24;;;;;;;6.55;2.20;;;;;;;;;;2038043;28;20033;-80
2023/08/01 02:16:42;;;;;;;4.35;2.17;;;;;;;;;;2044579;28;20031;-80
2023/08/01 02:18:02;;;;;;;5.10;2.20;;;;;;;;;;2047813;28;20476;-80
2023/08/01 02:19:21;;;;;;;5.43;2.40;;;;;;;;;;2042874;28;20028;-81
2023/08/01 02:20:40;;;;;;;4.97;2.50;;;;;;;;;;2076793;28;20037;-80
2023/08/01 02:21:58;;;;;;;2.70;2.15;;;;;;;;;;2054010;28;20107;-80
2023/08/01 02:23:18;;;;;;;5.38;2.22;;;;;;;;;;2045029;28;20027;-80
2023/08/01 02:24:37;;;;;;;3.03;2.15;;;;;;;;;;2042110;28;20028;-80
2023/08/01 02:25:56;;;;;;;4.05;2.20;;;;;;;;;;2059534;28;20067;-81
2023/08/01 02:27:15;;;;;;;2.15;1.70;;;;;;;;;;2052225;28;20012;-81
2023/08/01 02:28:34;;;;;;;3.03;2.28;;;;;;;;;;2053451;28;20007;-81
2023/08/01 02:29:53;;;;;;;4.13;2.17;;;;;;;;;;2055718;28;20027;-80
2023/08/01 02:31:13;;;;;;;3.38;2.10;;;;;;;;;;2054420;28;20408;-80
2023/08/01 02:32:32;;;;;;;3.28;2.40;;;;;;;;;;2036569;28;20036;-80
2023/08/01 02:33:52;;;;;;;13.65;2.40;;;;;;;;;;2045130;28;20032;-80
2023/08/01 02:35:11;;;;;;;3.03;2.15;;;;;;;;;;2050586;28;20039;-79
2023/08/01 02:36:31;;;;;;;2.75;2.30;;;;;;;;;;2052706;29;20011;-79
2023/08/01 02:37:52;;;;;;;4.38;2.20;;;;;;;;;;2051922;28;20035;-80
2023/08/01 02:39:12;;;;;;;2.28;1.90;;;;;;;;;;2051232;28;20035;-79
2023/08/01 02:40:31;;;;;;;5.38;2.42;;;;;;;;;;2043968;28;20036;-79
2023/08/01 02:41:52;;;;;;;4.45;2.40;;;;;;;;;;2038417;28;20064;-80
2023/08/01 02:43:12;;;;;;;4.35;2.20;;;;;;;;;;2046467;28;20434;-80
2023/08/01 02:44:31;;;;;;;3.40;2.17;;;;;;;;;;2053461;28;20036;-80
2023/08/01 02:45:53;;;;;;;7.22;2.42;;;;;;;;;;2050166;28;20412;-80
2023/08/01 02:47:12;;;;;;;2.60;2.08;;;;;;;;;;2042248;28;20481;-79
2023/08/01 02:48:34;;;;;;;3.63;2.10;;;;;;;;;;2050842;28;20431;-79
2023/08/01 02:49:56;;;;;;;4.72;2.00;;;;;;;;;;2055464;28;20021;-80
2023/08/01 02:51:16;;;;;;;4.35;2.13;;;;;;;;;;2047532;28;20055;-80
2023/08/01 02:52:35;;;;;;;5.13;2.55;;;;;;;;;;2038473;29;20032;-79
2023/08/01 02:53:54;;;;;;;3.08;1.90;;;;;;;;;;2038738;28;20040;-79
2023/08/01 02:55:13;;;;;;;3.42;2.38;;;;;;;;;;2043106;28;20039;-79
2023/08/01 02:56:32;;;;;;;3.80;1.60;;;;;;;;;;2038905;29;20453;-79
2023/08/01 02:57:50;;;;;;;3.25;2.03;;;;;;;;;;2036443;28;20040;-79
2023/08/01 02:59:09;;;;;;;4.75;2.58;;;;;;;;;;2043377;28;20035;-79
2023/08/01 03:00:29;;;;;;;7.75;2.25;;;;;;;;;;2039131;28;20517;-79
2023/08/01 03:01:47;;;;;;;6.15;2.35;;;;;;;;;;2044638;28;20036;-80
2023/08/01 03:03:10;;;;;;;4.28;2.10;;;;;;;;;;2045140;28;20031;-79
2023/08/01 03:04:29;;;;;;;6.30;2.60;;;;;;;;;;2045739;28;20142;-79
2023/08/01 03:05:49;;;;;;;9.32;2.20;;;;;;;;;;2044732;28;20020;-79
2023/08/01 03:07:08;;;;;;;3.20;2.17;;;;;;;;;;2043703;28;20025;-79
2023/08/01 03:08:27;;;;;;;2.70;2.15;;;;;;;;;;2042262;28;20039;-79
2023/08/01 03:09:45;;;;;;;5.18;2.03;;;;;;;;;;2036588;28;20024;-79
2023/08/01 03:11:04;;;;;;;6.18;2.20;;;;;;;;;;2042857;29;20035;-79
2023/08/01 03:12:24;;;;;;;4.57;2.20;;;;;;;;;;2042107;28;20588;-79
2023/08/01 03:13:43;;;;;;;4.47;2.20;;;;;;;;;;2037808;28;20037;-79
2023/08/01 03:15:02;;;;;;;3.30;2.30;;;;;;;;;;2035226;28;20047;-79
2023/08/01 03:16:21;;;;;;;4.63;2.70;;;;;;;;;;2044366;28;20039;-79
2023/08/01 03:17:40;;;;;;;4.70;2.55;;;;;;;;;;2039197;28;20032;-79
2023/08/01 03:19:04;;;;;;;4.53;2.40;;;;;;;;;;2043666;28;20054;-79
2023/08/01 03:20:23;;;;;;;3.42;2.25;;;;;;;;;;2041517;28;20036;-80
2023/08/01 03:21:42;;;;;;;4.35;2.53;;;;;;;;;;2043798;28;20103;-80
2023/08/01 03:23:01;;;;;;;8.27;4.15;;;;;;;;;;2038064;28;20682;-80
2023/08/01 03:24:20;;;;;;;9.27;2.40;;;;;;;;;;2036281;28;20047;-79
2023/08/01 03:25:39;;;;;;;5.20;2.50;;;;;;;;;;2035739;28;20107;-79
2023/08/01 03:26:57;;;;;;;4.20;2.65;;;;;;;;;;2036268;28;20036;-80
2023/08/01 03:28:16;;;;;;;5.05;2.38;;;;;;;;;;2044093;28;20035;-81
2023/08/01 03:29:35;;;;;;;5.25;2.95;;;;;;;;;;2045914;28;20028;-80
2023/08/01 03:30:54;;;;;;;4.00;2.60;;;;;;;;;;2045975;28;20027;-79
2023/08/01 03:32:13;;;;;;;2.85;2.58;;;;;;;;;;2049324;28;20035;-79
2023/08/01 03:33:32;;;;;;;5.95;2.42;;;;;;;;;;2041181;28;20024;-79
2023/08/01 03:34:52;;;;;;;4.57;2.85;;;;;;;;;;2041792;28;20051;-79
2023/08/01 03:36:11;;;;;;;3.47;2.50;;;;;;;;;;2043312;28;20497;-80
2023/08/01 03:37:29;;;;;;;4.40;2.67;;;;;;;;;;2047495;28;20036;-80
2023/08/01 03:38:48;;;;;;;9.82;2.83;;;;;;;;;;2047049;28;20517;-79
2023/08/01 03:40:11;;;;;;;2.55;2.35;;;;;;;;;;2039787;28;20067;-79
2023/08/01 03:41:31;;;;;;;4.72;3.38;;;;;;;;;;2036684;28;20028;-78
2023/08/01 03:42:50;;;;;;;3.00;2.03;;;;;;;;;;2043843;28;20063;-80
2023/08/01 03:44:08;;;;;;;7.18;2.67;;;;;;;;;;2041909;28;20028;-79
2023/08/01 03:45:28;;;;;;;4.20;2.50;;;;;;;;;;2037203;28;20078;-80
2023/08/01 03:46:47;;;;;;;5.15;2.60;;;;;;;;;;2035636;28;20031;-81
2023/08/01 03:48:06;;;;;;;6.57;2.72;;;;;;;;;;2044174;28;20031;-80
2023/08/01 03:49:25;;;;;;;6.18;2.70;;;;;;;;;;2047007;28;20472;-80
2023/08/01 03:50:44;;;;;;;8.98;3.30;;;;;;;;;;2046397;28;20067;-81
2023/08/01 03:52:03;;;;;;;4.07;2.80;;;;;;;;;;2050604;28;20516;-80
2023/08/01 03:53:22;;;;;;;5.95;2.88;;;;;;;;;;2037741;28;20043;-81
2023/08/01 03:54:43;;;;;;;5.55;2.97;;;;;;;;;;2044466;28;20035;-80
2023/08/01 03:56:02;;;;;;;5.22;2.95;;;;;;;;;;2045395;28;20089;-80
2023/08/01 03:57:21;;;;;;;4.72;2.53;;;;;;;;;;2045609;28;20032;-80
2023/08/01 03:58:40;;;;;;;6.05;2.83;;;;;;;;;;2048400;28;20035;-80
2023/08/01 04:00:00;;;;;;;4.22;2.97;;;;;;;;;;2046445;28;20031;-80
2023/08/01 04:01:19;;;;;;;5.93;3.20;;;;;;;;;;2042721;28;20035;-81
2023/08/01 04:02:38;;;;;;;4.88;3.10;;;;;;;;;;2034723;28;20035;-80
2023/08/01 04:03:57;;;;;;;7.60;2.97;;;;;;;;;;2043619;28;20031;-80
2023/08/01 04:05:15;;;;;;;7.78;3.10;;;;;;;;;;2042801;28;20035;-79
2023/08/01 04:06:34;;;;;;;5.70;2.60;;;;;;;;;;2046516;28;20031;-79
2023/08/01 04:07:56;;;;;;;5.53;3.20;;;;;;;;;;2040990;28;20040;-79
2023/08/01 04:09:15;;;;;;;3.92;3.05;;;;;;;;;;2037178;28;20027;-80
2023/08/01 04:10:34;;;;;;;7.78;3.03;;;;;;;;;;2040213;28;20498;-81
2023/08/01 04:11:54;;;;;;;4.45;2.83;;;;;;;;;;2045756;28;20119;-79
2023/08/01 04:13:13;;;;;;;6.35;3.65;;;;;;;;;;2037396;28;20036;-79
2023/08/01 04:14:31;;;;;;;6.70;3.08;;;;;;;;;;2047017;28;20038;-79
2023/08/01 04:15:51;;;;;;;3.95;2.67;;;;;;;;;;2047458;28;20106;-79
2023/08/01 04:17:12;;;;;;;4.65;2.70;;;;;;;;;;2039601;28;20182;-79
2023/08/01 04:18:31;;;;;;;6.65;2.90;;;;;;;;;;2045736;28;20450;-80
2023/08/01 04:19:50;;;;;;;5.30;2.70;;;;;;;;;;2048969;28;20031;-81
2023/08/01 04:21:09;;;;;;;5.00;2.55;;;;;;;;;;2047126;28;20480;-79
2023/08/01 04:22:28;;;;;;;3.83;2.78;;;;;;;;;;2049544;28;20036;-79
2023/08/01 04:23:47;;;;;;;6.10;2.50;;;;;;;;;;2049571;28;20492;-79
2023/08/01 04:25:06;;;;;;;6.90;2.83;;;;;;;;;;2038977;28;20191;-79
2023/08/01 04:26:25;;;;;;;4.70;2.88;;;;;;;;;;2039180;29;20111;-79
2023/08/01 04:27:45;;;;;;;4.20;2.60;;;;;;;;;;2046751;28;20027;-79
2023/08/01 04:29:04;;;;;;;9.27;2.65;;;;;;;;;;2049108;28;20400;-80
2023/08/01 04:30:23;;;;;;;7.82;2.60;;;;;;;;;;2039288;28;21272;-80
2023/08/01 04:31:42;;;;;;;5.35;2.47;;;;;;;;;;2042580;28;20043;-80
2023/08/01 04:33:01;;;;;;;4.95;2.95;;;;;;;;;;2050513;28;20023;-80
2023/08/01 04:34:20;;;;;;;5.72;2.38;;;;;;;;;;2039810;28;20389;-80
2023/08/01 04:35:38;;;;;;;5.07;2.45;;;;;;;;;;2045187;28;20027;-80
2023/08/01 04:36:57;;;;;;;4.70;2.55;;;;;;;;;;2052173;28;20040;-79
2023/08/01 04:38:16;;;;;;;4.10;2.47;;;;;;;;;;2047820;28;20122;-79
2023/08/01 04:39:35;;;;;;;5.75;2.17;;;;;;;;;;2046288;28;20027;-80
2023/08/01 04:40:54;;;;;;;6.60;2.42;;;;;;;;;;2048400;28;20508;-80
2023/08/01 04:42:13;;;;;;;5.38;2.92;;;;;;;;;;2048156;28;20031;-80
2023/08/01 04:43:32;;;;;;;4.47;2.53;;;;;;;;;;2045803;28;20439;-79
2023/08/01 04:44:51;;;;;;;5.05;2.75;;;;;;;;;;2046170;28;20035;-80
2023/08/01 04:46:10;;;;;;;4.75;2.15;;;;;;;;;;2039021;28;20039;-84
2023/08/01 04:47:29;;;;;;;4.80;2.30;;;;;;;;;;2042630;28;20114;-79
2023/08/01 04:48:48;;;;;;;3.45;2.30;;;;;;;;;;2040158;28;20033;-81
2023/08/01 04:50:07;;;;;;;4.03;2.47;;;;;;;;;;2035862;28;20520;-83
2023/08/01 04:51:26;;;;;;;4.15;2.60;;;;;;;;;;2044446;28;20020;-82
2023/08/01 04:52:45;;;;;;;3.05;2.35;;;;;;;;;;2048069;28;20496;-78
2023/08/01 04:54:04;;;;;;;4.40;2.20;;;;;;;;;;2044385;28;20036;-80
2023/08/01 04:55:23;;;;;;;4.88;2.28;;;;;;;;;;2046988;28;20019;-78
2023/08/01 04:56:42;;;;;;;2.65;1.92;;;;;;;;;;2047957;28;20512;-79
2023/08/01 04:58:01;;;;;;;6.25;2.35;;;;;;;;;;2041452;28;20028;-79
2023/08/01 04:59:20;;;;;;;6.72;2.38;;;;;;;;;;2044248;28;20114;-79
2023/08/01 05:00:40;;;;;;;7.72;2.33;;;;;;;;;;2047910;28;20039;-78
2023/08/01 05:01:59;;;;;;;4.00;2.28;;;;;;;;;;2042618;28;20487;-78
2023/08/01 05:03:18;;;;;;;4.63;2.38;;;;;;;;;;2046434;28;20035;-78
2023/08/01 05:04:38;;;;;;;7.50;2.65;;;;;;;;;;2039347;28;20028;-80
2023/08/01 05:05:58;;;;;;;9.68;2.97;;;;;;;;;;2046798;28;20040;-80
2023/08/01 05:07:17;;;;;;;4.82;2.70;;;;;;;;;;2050831;28;20486;-81
2023/08/01 05:08:36;;;;;;;5.95;2.30;;;;;;;;;;2051641;28;20032;-80
2023/08/01 05:09:55;;;;;;;5.43;2.60;;;;;;;;;;2039094;28;20028;-80
2023/08/01 05:11:15;;;;;;;2.22;2.00;;;;;;;;;;2044002;28;20039;-81
2023/08/01 05:12:34;;;;;;;3.22;2.55;;;;;;;;;;2048560;28;20039;-79
2023/08/01 05:13:52;;;;;;;4.82;2.40;;;;;;;;;;2047274;28;20043;-79
2023/08/01 05:15:12;;;;;;;6.18;2.60;;;;;;;;;;2038857;28;20040;-79
2023/08/01 05:16:32;;;;;;;4.78;2.25;;;;;;;;;;2036648;28;20034;-80
2023/08/01 05:17:52;;;;;;;5.88;2.63;;;;;;;;;;2044789;28;20031;-80
2023/08/01 05:19:11;;;;;;;3.17;2.05;;;;;;;;;;2036233;28;20043;-80
2023/08/01 05:20:31;;;;;;;3.63;2.40;;;;;;;;;;2045293;28;20031;-80
2023/08/01 05:21:51;;;;;;;5.60;2.60;;;;;;;;;;2052663;28;20032;-85
2023/08/01 05:23:11;;;;;;;8.13;3.05;;;;;;;;;;2041071;28;20039;-79
2023/08/01 05:24:29;;;;;;;5.05;2.45;;;;;;;;;;2038954;28;20483;-82
2023/08/01 05:25:48;;;;;;;3.78;2.38;;;;;;;;;;2043941;28;20031;-79
2023/08/01 05:27:07;;;;;;;3.95;2.53;;;;;;;;;;2041181;28;20036;-84
2023/08/01 05:28:26;;;;;;;4.32;2.80;;;;;;;;;;2044533;28;20043;-81
2023/08/01 05:29:48;;;;;;;5.07;2.85;;;;;;;;;;2040140;28;20028;-84
2023/08/01 05:31:07;;;;;;;4.80;2.85;;;;;;;;;;2043238;28;20109;-82
2023/08/01 05:32:26;;;;;;;7.30;2.50;;;;;;;;;;2049727;28;20110;-83
2023/08/01 05:33:45;;;;;;;3.80;2.40;;;;;;;;;;2040276;28;20118;-81
2023/08/01 05:35:04;;;;;;;4.35;2.28;;;;;;;;;;2041437;28;20039;-81
2023/08/01 05:36:23;;;;;;;5.18;2.35;;;;;;;;;;2048403;28;20050;-83
2023/08/01 05:37:42;;;;;;;4.30;2.70;;;;;;;;;;2047433;28;20028;-83
2023/08/01 05:39:01;;;;;;;6.63;2.60;;;;;;;;;;2048506;28;20031;-80
2023/08/01 05:40:20;;;;;;;3.38;2.10;;;;;;;;;;2043680;28;20071;-85
2023/08/01 05:41:38;;;;;;;5.03;2.47;;;;;;;;;;2036545;28;20496;-83
2023/08/01 05:42:57;;;;;;;3.35;2.40;;;;;;;;;;2047859;28;20110;-83
2023/08/01 05:44:16;;;;;;;5.28;2.22;;;;;;;;;;2040501;28;20040;-84
2023/08/01 05:45:35;;;;;;;4.13;2.50;;;;;;;;;;2045971;28;20537;-84
2023/08/01 05:46:54;;;;;;;5.72;2.40;;;;;;;;;;2047530;28;20031;-83
2023/08/01 05:48:13;;;;;;;4.25;2.13;;;;;;;;;;2047162;28;20067;-84
2023/08/01 05:49:32;;;;;;;6.57;2.45;;;;;;;;;;2047769;28;20397;-84
2023/08/01 05:50:53;;;;;;;2.95;2.20;;;;;;;;;;2038122;28;20118;-84
2023/08/01 05:52:12;;;;;;;3.70;1.92;;;;;;;;;;2043893;28;20412;-81
2023/08/01 05:53:30;;;;;;;2.95;2.10;;;;;;;;;;2038908;28;20504;-82
2023/08/01 05:54:49;;;;;;;4.15;2.35;;;;;;;;;;2042563;28;20484;-84
2023/08/01 05:56:08;;;;;;;4.82;2.45;;;;;;;;;;2036578;28;20031;-85
2023/08/01 05:57:28;;;;;;;6.85;2.88;;;;;;;;;;2053200;28;20027;-82
2023/08/01 05:58:48;;;;;;;3.38;2.20;;;;;;;;;;2055390;28;20027;-84
2023/08/01 06:00:07;;;;;;;4.03;2.50;;;;;;;;;;2051025;28;20024;-84
2023/08/01 06:01:26;;;;;;;6.05;2.20;;;;;;;;;;2052160;28;20043;-83
2023/08/01 06:02:44;;;;;;;5.88;2.38;;;;;;;;;;2047826;28;20043;-85
2023/08/01 06:04:04;;;;;;;4.00;2.00;;;;;;;;;;2039634;28;20123;-82
2023/08/01 06:05:23;;;;;;;6.28;2.33;;;;;;;;;;2044565;28;20032;-83
2023/08/01 06:06:42;;;;;;;3.47;2.45;;;;;;;;;;2044574;28;20031;-82
2023/08/01 06:08:01;;;;;;;4.30;1.80;;;;;;;;;;2038812;28;20024;-83
2023/08/01 06:09:20;;;;;;;2.95;2.10;;;;;;;;;;2039140;28;20423;-83
2023/08/01 06:10:39;;;;;;;3.28;1.70;;;;;;;;;;2045941;28;20066;-84
2023/08/01 06:11:58;;;;;;;3.58;2.13;;;;;;;;;;2049328;28;20028;-82
2023/08/01 06:13:30;;;;;;;3.60;2.10;;;;;;;;;;2048809;28;20043;-85
2023/08/01 06:14:49;;;;;;;4.32;2.33;;;;;;;;;;2041226;28;20063;-82
2023/08/01 06:16:09;;;;;;;3.42;1.90;;;;;;;;;;2038354;28;20023;-80
2023/08/01 06:17:28;;;;;;;5.25;1.85;;;;;;;;;;2044546;28;20027;-80
2023/08/01 06:18:47;;;;;;;4.78;1.80;;;;;;;;;;2047960;29;20019;-83
2023/08/01 06:20:06;;;;;;;5.90;2.10;;;;;;;;;;2040717;28;20452;-79
2023/08/01 06:21:25;;;;;;;2.65;2.05;;;;;;;;;;2039087;28;20087;-79
2023/08/01 06:22:44;;;;;;;5.55;2.75;;;;;;;;;;2038465;28;20020;-79
2023/08/01 06:24:03;;;;;;;3.38;1.98;;;;;;;;;;2038245;28;20508;-79
2023/08/01 06:25:22;;;;;;;4.13;1.83;;;;;;;;;;2045343;28;20507;-82
2023/08/01 06:26:41;;;;;;;3.97;2.20;;;;;;;;;;2044050;28;20031;-83
2023/08/01 06:28:00;;;;;;;4.32;1.83;;;;;;;;;;2047202;28;20015;-79
2023/08/01 06:29:19;;;;;;;3.70;2.08;;;;;;;;;;2048528;28;20031;-78
2023/08/01 06:30:38;;;;;;;2.00;1.70;;;;;;;;;;2047509;28;20436;-82
2023/08/01 06:31:57;;;;;;;2.45;1.83;;;;;;;;;;2047050;28;20043;-79
2023/08/01 06:33:16;;;;;;;9.40;2.70;;;;;;;;;;2048717;28;20106;-79
2023/08/01 06:34:35;;;;;;;3.78;1.98;;;;;;;;;;2040479;28;20032;-79
2023/08/01 06:35:54;;;;;;;2.25;2.05;;;;;;;;;;2037836;28;20032;-80
2023/08/01 06:37:13;;;;;;;2.42;1.73;;;;;;;;;;2043430;28;20035;-77
2023/08/01 06:38:32;;;;;;;3.35;1.85;;;;;;;;;;2047313;28;20027;-80
2023/08/01 06:39:51;;;;;;;4.60;2.08;;;;;;;;;;2037827;28;20031;-86
2023/08/01 06:41:10;;;;;;;3.45;1.83;;;;;;;;;;2046033;28;20059;-80
2023/08/01 06:42:29;;;;;;;3.22;1.80;;;;;;;;;;2047571;28;20023;-82
2023/08/01 06:43:48;;;;;;;3.05;1.83;;;;;;;;;;2047208;28;20031;-82
2023/08/01 06:45:07;;;;;;;2.47;1.90;;;;;;;;;;2048224;28;20035;-80
2023/08/01 06:46:25;;;;;;;2.55;1.92;;;;;;;;;;2039728;28;20112;-79
2023/08/01 06:47:45;;;;;;;2.95;1.70;;;;;;;;;;2044601;28;20035;-80
2023/08/01 06:49:04;;;;;;;3.20;1.80;;;;;;;;;;2046712;28;20032;-82
2023/08/01 06:50:23;;;;;;;6.07;1.58;;;;;;;;;;2040219;28;20087;-80
2023/08/01 06:51:42;;;;;;;3.15;1.48;;;;;;;;;;2043135;28;20031;-77
2023/08/01 06:53:01;;;;;;;4.53;2.08;;;;;;;;;;2048444;28;20031;-77
2023/08/01 06:54:20;;;;;;;3.13;1.58;;;;;;;;;;2048493;28;20039;-77
2023/08/01 06:55:39;;;;;;;5.35;2.20;;;;;;;;;;2044745;28;21016;-77
2023/08/01 06:56:59;;;;;;;3.38;1.63;;;;;;;;;;2046464;28;20027;-73
2023/08/01 06:58:19;;;;;;;3.25;1.65;;;;;;;;;;2047170;28;20019;-77
2023/08/01 06:59:38;;;;;;;4.78;1.83;;;;;;;;;;2047576;28;20412;-76
2023/08/01 07:00:57;;;;;;;1.90;1.40;;;;;;;;;;2041990;28;20048;-75
2023/08/01 07:02:16;;;;;;;2.30;1.70;;;;;;;;;;2035653;28;20024;-75
2023/08/01 07:03:35;;;;;;;2.35;1.35;;;;;;;;;;2046992;28;20019;-77
2023/08/01 07:04:54;;;;;;;4.35;1.50;;;;;;;;;;2038762;28;20115;-76
2023/08/01 07:06:13;;;;;;;3.75;1.63;;;;;;;;;;2049166;28;20027;-76
2023/08/01 07:07:33;;;;;;;5.80;1.98;;;;;;;;;;2045649;28;20027;-80
2023/08/01 07:08:52;;;;;;;2.78;1.58;;;;;;;;;;2047629;28;20039;-77
2023/08/01 07:10:11;;;;;;;4.57;1.75;;;;;;;;;;2046278;28;20028;-78
2023/08/01 07:11:30;;;;;;;4.28;1.63;;;;;;;;;;2047898;28;20808;-83
2023/08/01 07:12:50;;;;;;;3.38;1.83;;;;;;;;;;2041006;28;20031;-84
2023/08/01 07:14:09;;;;;;;2.65;1.77;;;;;;;;;;2045048;28;20039;-80
2023/08/01 07:15:28;;;;;;;2.78;1.42;;;;;;;;;;2046261;28;20035;-82
2023/08/01 07:16:48;;;;;;;4.75;1.60;;;;;;;;;;2041396;28;20032;-82
2023/08/01 07:18:07;;;;;;;2.88;1.52;;;;;;;;;;2038143;28;20342;-80
2023/08/01 07:19:26;;;;;;;2.03;1.20;;;;;;;;;;2048242;28;20416;-78
2023/08/01 07:20:45;;;;;;;4.43;1.55;;;;;;;;;;2042081;28;20067;-77
2023/08/01 07:22:05;;;;;;;4.38;1.25;;;;;;;;;;2047613;28;20035;-76
2023/08/01 07:23:24;;;;;;;6.13;1.77;;;;;;;;;;2040157;28;20032;-78
2023/08/01 07:24:43;;;;;;;3.15;1.42;;;;;;;;;;2075054;28;20025;-77
2023/08/01 07:26:02;;;;;;;2.92;1.55;;;;;;;;;;2055049;28;20017;-76
2023/08/01 07:27:21;;;;;;;2.45;1.40;;;;;;;;;;2036362;28;20034;-76
2023/08/01 07:28:40;;;;;;;2.67;1.33;;;;;;;;;;2043153;28;20035;-77
2023/08/01 07:29:59;;;;;;;2.65;1.45;;;;;;;;;;2046483;28;20497;-78
2023/08/01 07:31:18;;;;;;;6.28;2.00;;;;;;;;;;2040230;28;20056;-79
2023/08/01 07:32:38;;;;;;;3.05;1.75;;;;;;;;;;2043953;28;20035;-77
2023/08/01 07:33:57;;;;;;;3.22;1.70;;;;;;;;;;2041138;28;20024;-75
2023/08/01 07:35:16;;;;;;;3.47;1.80;;;;;;;;;;2046351;28;20678;-77
2023/08/01 07:36:35;;;;;;;4.80;1.60;;;;;;;;;;2054254;28;20041;-75
2023/08/01 07:37:54;;;;;;;5.45;1.63;;;;;;;;;;2046508;28;20515;-76
2023/08/01 07:39:13;;;;;;;2.97;1.50;;;;;;;;;;2040436;28;20040;-75
2023/08/01 07:40:32;;;;;;;3.78;1.85;;;;;;;;;;2045031;28;20506;-76
2023/08/01 07:41:51;;;;;;;3.50;1.55;;;;;;;;;;2049516;28;20484;-76
2023/08/01 07:43:10;;;;;;;6.60;1.60;;;;;;;;;;2048406;28;20023;-75
2023/08/01 07:44:30;;;;;;;2.58;1.52;;;;;;;;;;2050570;28;20035;-76
2023/08/01 07:45:50;;;;;;;4.68;1.70;;;;;;;;;;2047699;28;20039;-76
2023/08/01 07:47:09;;;;;;;2.40;1.60;;;;;;;;;;2048859;28;20121;-77
2023/08/01 07:48:29;;;;;;;2.13;1.45;;;;;;;;;;2040202;28;20484;-79
2023/08/01 07:49:48;;;;;;;3.60;1.30;;;;;;;;;;2044970;29;20474;-77
2023/08/01 07:51:07;;;;;;;1.80;1.42;;;;;;;;;;2037986;28;20035;-75
2023/08/01 07:52:26;;;;;;;2.92;1.40;;;;;;;;;;2045072;28;20032;-75
2023/08/01 07:53:45;;;;;;;1.70;1.30;;;;;;;;;;2048596;28;20675;-76
2023/08/01 07:55:05;;;;;;;2.50;1.70;;;;;;;;;;2041598;28;20063;-77